sensor_id;sensor_type;location;lat;lon;timestamp;pressure;altitude;pressure_sealevel;temperature;humidity
30339;BME280;795;49.296;11.348;2023-05-19T00:01:29;96934.31;;;10.88;76.63
30339;BME280;795;49.296;11.348;2023-05-19T00:03:58;96932.47;;;10.89;76.84
30339;BME280;795;49.296;11.348;2023-05-19T00:06:31;96930.25;;;10.84;77.12
30339;BME280;795;49.296;11.348;2023-05-19T00:09:04;96919.44;;;10.76;77.51
30339;BME280;795;49.296;11.348;2023-05-19T00:11:38;96919.63;;;10.75;77.24
30339;BME280;795;49.296;11.348;2023-05-19T00:14:08;96936.97;;;10.80;77.25
30339;BME280;795;49.296;11.348;2023-05-19T00:16:37;96923.97;;;10.76;76.67
30339;BME280;795;49.296;11.348;2023-05-19T00:19:05;96860.13;;;10.36;76.69
30339;BME280;795;49.296;11.348;2023-05-19T00:21:37;96921.16;;;10.77;76.01
30339;BME280;795;49.296;11.348;2023-05-19T00:24:06;96917.91;;;10.74;77.20
30339;BME280;795;49.296;11.348;2023-05-19T00:26:33;96893.34;;;10.60;77.22
30339;BME280;795;49.296;11.348;2023-05-19T00:29:00;96900.84;;;10.57;77.51
30339;BME280;795;49.296;11.348;2023-05-19T00:31:27;96891.84;;;10.66;77.80
30339;BME280;795;49.296;11.348;2023-05-19T00:33:54;96911.88;;;10.72;77.53
30339;BME280;795;49.296;11.348;2023-05-19T00:36:22;96887.25;;;10.58;78.25
30339;BME280;795;49.296;11.348;2023-05-19T00:38:49;96913.22;;;10.76;76.79
30339;BME280;795;49.296;11.348;2023-05-19T00:41:17;96880.13;;;10.67;77.20
30339;BME280;795;49.296;11.348;2023-05-19T00:43:44;96888.56;;;10.72;76.66
30339;BME280;795;49.296;11.348;2023-05-19T00:46:11;96880.06;;;10.59;76.94
30339;BME280;795;49.296;11.348;2023-05-19T00:48:38;96916.97;;;10.83;77.14
30339;BME280;795;49.296;11.348;2023-05-19T00:51:05;96904.88;;;10.79;75.28
30339;BME280;795;49.296;11.348;2023-05-19T00:53:34;96911.09;;;10.79;74.88
30339;BME280;795;49.296;11.348;2023-05-19T00:56:02;96886.47;;;10.66;73.70
30339;BME280;795;49.296;11.348;2023-05-19T00:58:32;96907.91;;;10.84;74.44
30339;BME280;795;49.296;11.348;2023-05-19T01:00:59;96907.56;;;10.79;75.64
30339;BME280;795;49.296;11.348;2023-05-19T01:03:33;96899.25;;;10.90;74.11
30339;BME280;795;49.296;11.348;2023-05-19T01:06:03;96898.50;;;10.80;74.85
30339;BME280;795;49.296;11.348;2023-05-19T01:08:38;96897.00;;;10.85;73.64
30339;BME280;795;49.296;11.348;2023-05-19T01:11:06;96894.50;;;10.84;73.32
30339;BME280;795;49.296;11.348;2023-05-19T01:13:35;96888.81;;;10.87;73.36
30339;BME280;795;49.296;11.348;2023-05-19T01:16:23;96888.63;;;10.88;73.46
30339;BME280;795;49.296;11.348;2023-05-19T01:25:51;96883.56;;;10.77;73.78
30339;BME280;795;49.296;11.348;2023-05-19T01:31:36;96881.16;;;10.74;72.68
30339;BME280;795;49.296;11.348;2023-05-19T01:34:06;96881.47;;;10.71;72.44
30339;BME280;795;49.296;11.348;2023-05-19T01:36:36;96870.34;;;10.58;72.77
30339;BME280;795;49.296;11.348;2023-05-19T01:39:04;96749.94;;;9.94;72.34
30339;BME280;795;49.296;11.348;2023-05-19T01:41:33;96888.38;;;10.74;72.50
30339;BME280;795;49.296;11.348;2023-05-19T01:44:01;96896.91;;;10.69;72.38
30339;BME280;795;49.296;11.348;2023-05-19T01:46:28;96875.03;;;10.56;72.51
30339;BME280;795;49.296;11.348;2023-05-19T01:48:55;96870.34;;;10.58;72.93
30339;BME280;795;49.296;11.348;2023-05-19T01:51:23;96870.09;;;10.51;72.67
30339;BME280;795;49.296;11.348;2023-05-19T01:53:50;96857.50;;;10.44;73.40
30339;BME280;795;49.296;11.348;2023-05-19T01:59:49;96885.44;;;10.59;72.89
30339;BME280;795;49.296;11.348;2023-05-19T02:03:15;96888.06;;;10.51;72.92
30339;BME280;795;49.296;11.348;2023-05-19T02:06:31;96886.06;;;10.53;73.75
30339;BME280;795;49.296;11.348;2023-05-19T02:09:18;96862.31;;;10.40;74.48
30339;BME280;795;49.296;11.348;2023-05-19T02:11:58;96877.00;;;10.54;74.44
30339;BME280;795;49.296;11.348;2023-05-19T02:14:35;96877.44;;;10.41;74.59
30339;BME280;795;49.296;11.348;2023-05-19T02:17:05;96872.59;;;10.45;74.79
30339;BME280;795;49.296;11.348;2023-05-19T02:19:37;96855.53;;;10.28;74.88
30339;BME280;795;49.296;11.348;2023-05-19T02:22:05;96858.38;;;10.27;75.75
30339;BME280;795;49.296;11.348;2023-05-19T02:24:32;96852.66;;;10.30;75.50
30339;BME280;795;49.296;11.348;2023-05-19T02:26:59;96874.38;;;10.36;74.69
30339;BME280;795;49.296;11.348;2023-05-19T02:29:26;96851.72;;;10.13;75.09
30339;BME280;795;49.296;11.348;2023-05-19T02:31:54;96866.19;;;10.20;75.73
30339;BME280;795;49.296;11.348;2023-05-19T02:34:21;96868.25;;;10.26;75.14
30339;BME280;795;49.296;11.348;2023-05-19T02:36:48;96868.03;;;10.20;75.37
30339;BME280;795;49.296;11.348;2023-05-19T02:39:16;96861.06;;;10.27;75.87
30339;BME280;795;49.296;11.348;2023-05-19T02:41:43;96832.50;;;10.08;76.52
30339;BME280;795;49.296;11.348;2023-05-19T02:44:10;96836.72;;;10.11;77.12
30339;BME280;795;49.296;11.348;2023-05-19T02:46:37;96847.41;;;10.20;77.79
30339;BME280;795;49.296;11.348;2023-05-19T02:49:04;96840.25;;;10.11;77.98
30339;BME280;795;49.296;11.348;2023-05-19T02:51:31;96807.56;;;9.90;78.33
30339;BME280;795;49.296;11.348;2023-05-19T02:53:58;96848.94;;;10.05;78.88
30339;BME280;795;49.296;11.348;2023-05-19T02:56:25;96818.22;;;9.82;79.91
30339;BME280;795;49.296;11.348;2023-05-19T02:58:53;96854.75;;;10.00;80.51
30339;BME280;795;49.296;11.348;2023-05-19T03:01:20;96846.28;;;9.87;82.19
30339;BME280;795;49.296;11.348;2023-05-19T03:03:48;96863.03;;;9.89;82.90
30339;BME280;795;49.296;11.348;2023-05-19T03:06:15;96840.72;;;9.71;83.65
30339;BME280;795;49.296;11.348;2023-05-19T03:08:43;96849.50;;;9.73;84.90
30339;BME280;795;49.296;11.348;2023-05-19T03:11:10;96850.94;;;9.68;86.34
30339;BME280;795;49.296;11.348;2023-05-19T03:13:37;96810.47;;;9.26;87.15
30339;BME280;795;49.296;11.348;2023-05-19T03:16:04;96856.97;;;9.52;87.81
30339;BME280;795;49.296;11.348;2023-05-19T03:18:34;96854.75;;;9.48;89.11
30339;BME280;795;49.296;11.348;2023-05-19T03:21:01;96862.25;;;9.44;89.52
30339;BME280;795;49.296;11.348;2023-05-19T03:23:28;96852.81;;;9.40;90.67
30339;BME280;795;49.296;11.348;2023-05-19T03:25:55;96841.25;;;9.22;91.68
30339;BME280;795;49.296;11.348;2023-05-19T03:28:22;96813.28;;;9.07;92.04
30339;BME280;795;49.296;11.348;2023-05-19T03:30:49;96843.34;;;9.18;93.01
30339;BME280;795;49.296;11.348;2023-05-19T03:33:17;96869.81;;;9.31;93.78
30339;BME280;795;49.296;11.348;2023-05-19T03:35:44;96852.94;;;9.21;95.07
30339;BME280;795;49.296;11.348;2023-05-19T03:38:11;96855.22;;;9.16;96.29
30339;BME280;795;49.296;11.348;2023-05-19T03:40:38;96835.69;;;9.06;97.11
30339;BME280;795;49.296;11.348;2023-05-19T03:43:07;96822.91;;;9.00;97.88
30339;BME280;795;49.296;11.348;2023-05-19T03:45:34;96874.31;;;9.30;98.07
30339;BME280;795;49.296;11.348;2023-05-19T03:48:01;96858.63;;;9.18;98.81
30339;BME280;795;49.296;11.348;2023-05-19T03:50:28;96868.66;;;9.33;98.38
30339;BME280;795;49.296;11.348;2023-05-19T03:52:57;96817.53;;;9.00;99.37
30339;BME280;795;49.296;11.348;2023-05-19T03:55:24;96877.66;;;9.42;98.22
30339;BME280;795;49.296;11.348;2023-05-19T03:57:52;96877.31;;;9.45;98.99
30339;BME280;795;49.296;11.348;2023-05-19T04:00:18;96883.53;;;9.46;98.95
30339;BME280;795;49.296;11.348;2023-05-19T04:02:45;96843.34;;;9.18;100.00
30339;BME280;795;49.296;11.348;2023-05-19T04:05:13;96879.94;;;9.37;100.00
30339;BME280;795;49.296;11.348;2023-05-19T04:07:40;96876.53;;;9.35;100.00
30339;BME280;795;49.296;11.348;2023-05-19T04:10:09;96868.56;;;9.25;100.00
30339;BME280;795;49.296;11.348;2023-05-19T04:12:36;96817.81;;;8.97;100.00
30339;BME280;795;49.296;11.348;2023-05-19T04:15:04;96871.63;;;9.30;100.00
30339;BME280;795;49.296;11.348;2023-05-19T04:17:34;96835.38;;;9.09;100.00
30339;BME280;795;49.296;11.348;2023-05-19T04:20:01;96875.94;;;9.41;100.00
30339;BME280;795;49.296;11.348;2023-05-19T04:22:28;96822.09;;;9.17;100.00
30339;BME280;795;49.296;11.348;2023-05-19T04:24:55;96844.16;;;9.28;100.00
30339;BME280;795;49.296;11.348;2023-05-19T04:27:22;96873.03;;;9.52;100.00
30339;BME280;795;49.296;11.348;2023-05-19T04:29:49;96881.09;;;9.52;100.00
30339;BME280;795;49.296;11.348;2023-05-19T04:32:16;96879.47;;;9.59;100.00
30339;BME280;795;49.296;11.348;2023-05-19T04:34:43;96821.88;;;9.28;100.00
30339;BME280;795;49.296;11.348;2023-05-19T04:37:13;96866.47;;;9.64;100.00
30339;BME280;795;49.296;11.348;2023-05-19T04:39:42;96877.69;;;9.77;100.00
30339;BME280;795;49.296;11.348;2023-05-19T04:42:11;96857.28;;;9.67;100.00
30339;BME280;795;49.296;11.348;2023-05-19T04:44:39;96869.56;;;9.87;100.00
30339;BME280;795;49.296;11.348;2023-05-19T04:47:07;96825.19;;;9.57;100.00
30339;BME280;795;49.296;11.348;2023-05-19T04:49:35;96875.81;;;9.95;100.00
30339;BME280;795;49.296;11.348;2023-05-19T04:52:09;96860.38;;;9.89;100.00
30339;BME280;795;49.296;11.348;2023-05-19T04:54:38;96817.06;;;9.84;99.62
30339;BME280;795;49.296;11.348;2023-05-19T04:57:06;96842.38;;;10.17;97.78
30339;BME280;795;49.296;11.348;2023-05-19T04:59:33;96878.59;;;10.39;97.39
30339;BME280;795;49.296;11.348;2023-05-19T05:02:00;96843.16;;;10.35;95.52
30339;BME280;795;49.296;11.348;2023-05-19T05:04:27;96818.69;;;10.38;94.40
30339;BME280;795;49.296;11.348;2023-05-19T05:06:54;96811.03;;;10.43;94.29
30339;BME280;795;49.296;11.348;2023-05-19T05:09:21;96801.44;;;10.41;92.24
30339;BME280;795;49.296;11.348;2023-05-19T05:11:48;96857.63;;;10.94;91.76
30339;BME280;795;49.296;11.348;2023-05-19T05:14:16;96818.16;;;10.60;90.52
30339;BME280;795;49.296;11.348;2023-05-19T05:16:44;96887.34;;;10.92;92.08
30339;BME280;795;49.296;11.348;2023-05-19T05:19:11;96841.06;;;10.73;92.26
30339;BME280;795;49.296;11.348;2023-05-19T05:21:39;96821.94;;;10.50;92.22
30339;BME280;795;49.296;11.348;2023-05-19T05:24:09;96849.69;;;10.84;91.46
30339;BME280;795;49.296;11.348;2023-05-19T05:26:36;96860.78;;;10.89;91.86
30339;BME280;795;49.296;11.348;2023-05-19T05:29:03;96874.84;;;11.17;91.56
30339;BME280;795;49.296;11.348;2023-05-19T05:31:30;96857.56;;;11.19;89.67
30339;BME280;795;49.296;11.348;2023-05-19T05:33:58;96851.16;;;11.12;88.51
30339;BME280;795;49.296;11.348;2023-05-19T05:36:25;96824.91;;;10.98;89.52
30339;BME280;795;49.296;11.348;2023-05-19T05:38:52;96855.03;;;11.18;88.27
30339;BME280;795;49.296;11.348;2023-05-19T05:41:19;96882.47;;;11.29;88.32
30339;BME280;795;49.296;11.348;2023-05-19T05:43:47;96868.66;;;11.24;89.01
30339;BME280;795;49.296;11.348;2023-05-19T05:46:15;96852.00;;;11.13;88.86
30339;BME280;795;49.296;11.348;2023-05-19T05:48:43;96841.38;;;11.03;89.05
30339;BME280;795;49.296;11.348;2023-05-19T05:51:11;96850.84;;;11.15;89.57
30339;BME280;795;49.296;11.348;2023-05-19T05:53:43;96880.31;;;11.41;88.24
30339;BME280;795;49.296;11.348;2023-05-19T05:56:11;96865.38;;;11.47;87.53
30339;BME280;795;49.296;11.348;2023-05-19T05:58:39;96877.81;;;11.40;87.38
30339;BME280;795;49.296;11.348;2023-05-19T06:01:06;96856.81;;;11.43;87.66
30339;BME280;795;49.296;11.348;2023-05-19T06:03:40;96869.88;;;11.72;86.93
30339;BME280;795;49.296;11.348;2023-05-19T06:06:09;96886.34;;;11.69;85.93
30339;BME280;795;49.296;11.348;2023-05-19T06:08:36;96867.13;;;11.64;85.53
30339;BME280;795;49.296;11.348;2023-05-19T06:11:03;96846.47;;;11.64;85.70
30339;BME280;795;49.296;11.348;2023-05-19T06:13:35;96845.59;;;11.64;84.76
30339;BME280;795;49.296;11.348;2023-05-19T06:16:03;96869.06;;;11.79;83.88
30339;BME280;795;49.296;11.348;2023-05-19T06:18:30;96826.47;;;11.67;82.90
30339;BME280;795;49.296;11.348;2023-05-19T06:20:58;96850.22;;;11.95;82.16
30339;BME280;795;49.296;11.348;2023-05-19T06:23:25;96867.25;;;12.44;82.15
30339;BME280;795;49.296;11.348;2023-05-19T06:25:54;96876.09;;;12.85;80.79
30339;BME280;795;49.296;11.348;2023-05-19T06:28:22;96868.69;;;12.87;79.40
30339;BME280;795;49.296;11.348;2023-05-19T06:30:49;96822.59;;;12.66;77.98
30339;BME280;795;49.296;11.348;2023-05-19T06:33:16;96878.25;;;13.06;77.48
30339;BME280;795;49.296;11.348;2023-05-19T06:35:43;96868.31;;;12.98;75.95
30339;BME280;795;49.296;11.348;2023-05-19T06:38:10;96844.91;;;13.07;76.46
30339;BME280;795;49.296;11.348;2023-05-19T06:40:37;96869.50;;;13.12;76.81
30339;BME280;795;49.296;11.348;2023-05-19T06:43:04;96868.97;;;13.16;75.94
30339;BME280;795;49.296;11.348;2023-05-19T06:45:32;96875.34;;;13.62;75.17
30339;BME280;795;49.296;11.348;2023-05-19T06:47:59;96841.78;;;13.65;72.39
30339;BME280;795;49.296;11.348;2023-05-19T06:50:26;96837.16;;;13.43;70.99
30339;BME280;795;49.296;11.348;2023-05-19T06:52:53;96882.00;;;14.28;69.51
30339;BME280;795;49.296;11.348;2023-05-19T06:55:20;96831.75;;;14.64;66.42
30339;BME280;795;49.296;11.348;2023-05-19T06:57:47;96868.44;;;14.58;66.52
30339;BME280;795;49.296;11.348;2023-05-19T07:00:15;96842.28;;;14.36;66.22
30339;BME280;795;49.296;11.348;2023-05-19T07:02:47;96855.84;;;14.51;68.77
30339;BME280;795;49.296;11.348;2023-05-19T07:05:14;96852.13;;;14.52;66.80
30339;BME280;795;49.296;11.348;2023-05-19T07:07:41;96857.03;;;13.80;69.26
30339;BME280;795;49.296;11.348;2023-05-19T07:10:09;96863.25;;;14.12;70.63
30339;BME280;795;49.296;11.348;2023-05-19T07:12:37;96837.59;;;14.08;69.94
30339;BME280;795;49.296;11.348;2023-05-19T07:15:04;96826.81;;;14.08;68.84
30339;BME280;795;49.296;11.348;2023-05-19T07:17:31;96865.09;;;14.56;68.60
30339;BME280;795;49.296;11.348;2023-05-19T07:19:58;96817.03;;;14.67;67.15
30339;BME280;795;49.296;11.348;2023-05-19T07:22:27;96842.22;;;14.96;66.40
30339;BME280;795;49.296;11.348;2023-05-19T07:24:54;96799.31;;;14.49;65.80
30339;BME280;795;49.296;11.348;2023-05-19T07:27:22;96870.22;;;15.18;64.90
30339;BME280;795;49.296;11.348;2023-05-19T07:29:49;96834.28;;;14.95;64.68
30339;BME280;795;49.296;11.348;2023-05-19T07:32:16;96835.78;;;15.12;64.61
30339;BME280;795;49.296;11.348;2023-05-19T07:34:43;96827.31;;;15.29;63.54
30339;BME280;795;49.296;11.348;2023-05-19T07:37:10;96832.66;;;15.73;62.98
30339;BME280;795;49.296;11.348;2023-05-19T07:39:37;96849.16;;;16.14;62.55
30339;BME280;795;49.296;11.348;2023-05-19T07:42:04;96826.41;;;15.73;62.56
30339;BME280;795;49.296;11.348;2023-05-19T07:44:31;96776.50;;;15.10;64.39
30339;BME280;795;49.296;11.348;2023-05-19T07:46:59;96850.16;;;15.56;64.09
30339;BME280;795;49.296;11.348;2023-05-19T07:49:26;96844.53;;;15.28;65.21
30339;BME280;795;49.296;11.348;2023-05-19T07:51:53;96820.56;;;14.67;66.10
30339;BME280;795;49.296;11.348;2023-05-19T07:54:20;96798.50;;;14.04;68.94
30339;BME280;795;49.296;11.348;2023-05-19T07:56:47;96805.19;;;14.53;69.16
30339;BME280;795;49.296;11.348;2023-05-19T07:59:15;96801.31;;;14.70;68.38
30339;BME280;795;49.296;11.348;2023-05-19T08:03:39;96856.50;;;15.34;67.16
30339;BME280;795;49.296;11.348;2023-05-19T08:06:06;96844.72;;;15.71;63.33
30339;BME280;795;49.296;11.348;2023-05-19T08:08:33;96852.06;;;16.13;64.96
30339;BME280;795;49.296;11.348;2023-05-19T08:11:04;96835.72;;;16.48;62.10
30339;BME280;795;49.296;11.348;2023-05-19T08:13:34;96775.69;;;16.24;60.56
30339;BME280;795;49.296;11.348;2023-05-19T08:16:01;96852.25;;;16.11;60.58
30339;BME280;795;49.296;11.348;2023-05-19T08:18:28;96813.47;;;15.39;64.21
30339;BME280;795;49.296;11.348;2023-05-19T08:20:55;96846.44;;;15.13;66.90
30339;BME280;795;49.296;11.348;2023-05-19T08:23:22;96828.72;;;15.25;65.61
30339;BME280;795;49.296;11.348;2023-05-19T08:25:50;96789.78;;;15.56;63.52
30339;BME280;795;49.296;11.348;2023-05-19T08:28:17;96788.47;;;15.87;62.61
30339;BME280;795;49.296;11.348;2023-05-19T08:30:44;96803.38;;;16.19;61.99
30339;BME280;795;49.296;11.348;2023-05-19T08:33:11;96828.38;;;16.42;61.53
30339;BME280;795;49.296;11.348;2023-05-19T08:35:38;96779.91;;;16.05;60.95
30339;BME280;795;49.296;11.348;2023-05-19T08:38:05;96827.59;;;16.48;60.85
30339;BME280;795;49.296;11.348;2023-05-19T08:40:36;96838.00;;;16.94;58.62
30339;BME280;795;49.296;11.348;2023-05-19T08:43:03;96835.09;;;16.04;59.65
30339;BME280;795;49.296;11.348;2023-05-19T08:45:32;96833.88;;;15.71;61.98
30339;BME280;795;49.296;11.348;2023-05-19T08:48:01;96797.72;;;15.43;61.08
30339;BME280;795;49.296;11.348;2023-05-19T08:50:30;96803.31;;;15.56;60.79
30339;BME280;795;49.296;11.348;2023-05-19T08:53:19;96808.34;;;15.59;61.55
30339;BME280;795;49.296;11.348;2023-05-19T08:56:24;96816.13;;;15.18;62.49
30339;BME280;795;49.296;11.348;2023-05-19T08:58:56;96787.88;;;14.91;64.61
30339;BME280;795;49.296;11.348;2023-05-19T09:01:29;96817.78;;;14.90;65.39
30339;BME280;795;49.296;11.348;2023-05-19T09:03:58;96828.72;;;15.25;65.13
30339;BME280;795;49.296;11.348;2023-05-19T09:06:26;96748.50;;;15.18;63.40
30339;BME280;795;49.296;11.348;2023-05-19T09:08:53;96775.66;;;14.95;63.68
30339;BME280;795;49.296;11.348;2023-05-19T09:11:20;96769.94;;;15.19;63.01
30339;BME280;795;49.296;11.348;2023-05-19T09:13:48;96807.25;;;15.74;63.25
30339;BME280;795;49.296;11.348;2023-05-19T09:16:16;96765.31;;;15.85;63.08
30339;BME280;795;49.296;11.348;2023-05-19T09:18:57;96798.19;;;16.24;60.73
30339;BME280;795;49.296;11.348;2023-05-19T09:21:32;96822.06;;;16.35;61.53
30339;BME280;795;49.296;11.348;2023-05-19T09:24:08;96833.16;;;15.98;61.11
30339;BME280;795;49.296;11.348;2023-05-19T09:26:37;96820.41;;;16.34;60.16
30339;BME280;795;49.296;11.348;2023-05-19T09:29:15;96815.03;;;16.41;59.67
30339;BME280;795;49.296;11.348;2023-05-19T09:31:52;96815.47;;;16.66;59.14
30339;BME280;795;49.296;11.348;2023-05-19T09:34:21;96782.88;;;16.87;59.04
30339;BME280;795;49.296;11.348;2023-05-19T09:36:50;96781.84;;;16.88;57.40
30339;BME280;795;49.296;11.348;2023-05-19T09:39:22;96820.41;;;17.17;56.98
30339;BME280;795;49.296;11.348;2023-05-19T09:41:55;96815.69;;;17.33;56.23
30339;BME280;795;49.296;11.348;2023-05-19T09:44:25;96814.69;;;17.87;55.65
30339;BME280;795;49.296;11.348;2023-05-19T09:46:56;96806.13;;;17.90;54.52
30339;BME280;795;49.296;11.348;2023-05-19T09:49:29;96782.38;;;17.11;56.06
30339;BME280;795;49.296;11.348;2023-05-19T09:52:02;96811.13;;;17.40;57.10
30339;BME280;795;49.296;11.348;2023-05-19T09:54:29;96762.53;;;17.51;55.29
30339;BME280;795;49.296;11.348;2023-05-19T09:57:01;96776.34;;;17.15;57.34
30339;BME280;795;49.296;11.348;2023-05-19T09:59:30;96805.16;;;17.10;56.84
30339;BME280;795;49.296;11.348;2023-05-19T10:02:00;96768.03;;;16.55;56.83
30339;BME280;795;49.296;11.348;2023-05-19T10:04:30;96736.69;;;16.46;57.53
30339;BME280;795;49.296;11.348;2023-05-19T10:06:59;96705.69;;;16.89;57.15
30339;BME280;795;49.296;11.348;2023-05-19T10:09:32;96745.84;;;17.07;56.55
30339;BME280;795;49.296;11.348;2023-05-19T10:12:03;96768.94;;;17.91;54.24
30339;BME280;795;49.296;11.348;2023-05-19T10:14:31;96714.81;;;17.83;53.57
30339;BME280;795;49.296;11.348;2023-05-19T10:16:58;96647.38;;;17.13;53.22
30339;BME280;795;49.296;11.348;2023-05-19T10:19:28;96755.63;;;18.09;54.14
30339;BME280;795;49.296;11.348;2023-05-19T10:21:56;96772.16;;;18.40;53.41
30339;BME280;795;49.296;11.348;2023-05-19T10:24:23;96766.69;;;19.63;50.80
30339;BME280;795;49.296;11.348;2023-05-19T10:27:07;96725.72;;;18.09;52.16
30339;BME280;795;49.296;11.348;2023-05-19T10:29:48;96753.31;;;18.65;52.39
30339;BME280;795;49.296;11.348;2023-05-19T10:32:25;96725.88;;;18.80;51.31
30339;BME280;795;49.296;11.348;2023-05-19T10:40:35;96762.44;;;19.16;52.34
30339;BME280;795;49.296;11.348;2023-05-19T10:43:43;96771.38;;;19.88;48.64
30339;BME280;795;49.296;11.348;2023-05-19T10:46:13;96709.53;;;20.19;47.42
30339;BME280;795;49.296;11.348;2023-05-19T10:48:44;96759.72;;;20.43;47.99
30339;BME280;795;49.296;11.348;2023-05-19T10:51:14;96752.69;;;19.91;48.87
30339;BME280;795;49.296;11.348;2023-05-19T10:53:42;96743.56;;;19.21;49.46
30339;BME280;795;49.296;11.348;2023-05-19T10:56:33;96727.94;;;19.10;49.14
30339;BME280;795;49.296;11.348;2023-05-19T10:59:02;96742.44;;;18.45;52.01
30339;BME280;795;49.296;11.348;2023-05-19T11:01:33;96764.19;;;18.32;51.86
30339;BME280;795;49.296;11.348;2023-05-19T11:04:07;96756.66;;;18.34;52.78
30339;BME280;795;49.296;11.348;2023-05-19T11:06:39;96730.06;;;18.82;51.63
30339;BME280;795;49.296;11.348;2023-05-19T11:09:19;96736.34;;;17.98;52.43
30339;BME280;795;49.296;11.348;2023-05-19T11:12:04;96721.94;;;18.76;53.06
30339;BME280;795;49.296;11.348;2023-05-19T11:14:33;96730.69;;;19.55;50.81
30339;BME280;795;49.296;11.348;2023-05-19T11:17:00;96760.44;;;20.57;48.98
30339;BME280;795;49.296;11.348;2023-05-19T11:19:34;96760.72;;;19.79;49.57
30339;BME280;795;49.296;11.348;2023-05-19T11:22:12;96752.97;;;19.32;50.85
30339;BME280;795;49.296;11.348;2023-05-19T11:24:44;96750.03;;;19.34;51.29
30339;BME280;795;49.296;11.348;2023-05-19T11:27:31;96753.06;;;18.99;51.46
30339;BME280;795;49.296;11.348;2023-05-19T11:30:10;96739.00;;;19.09;52.72
30339;BME280;795;49.296;11.348;2023-05-19T11:32:40;96736.78;;;18.86;52.10
30339;BME280;795;49.296;11.348;2023-05-19T11:35:09;96709.91;;;19.09;52.04
30339;BME280;795;49.296;11.348;2023-05-19T11:37:36;96749.94;;;18.89;52.05
30339;BME280;795;49.296;11.348;2023-05-19T11:40:07;96747.69;;;18.67;51.91
30339;BME280;795;49.296;11.348;2023-05-19T11:42:35;96718.69;;;19.18;50.87
30339;BME280;795;49.296;11.348;2023-05-19T11:45:05;96662.97;;;20.21;49.08
30339;BME280;795;49.296;11.348;2023-05-19T11:47:32;96729.72;;;20.86;47.21
30339;BME280;795;49.296;11.348;2023-05-19T11:50:19;96698.75;;;19.37;49.86
30339;BME280;795;49.296;11.348;2023-05-19T11:52:46;96725.88;;;19.57;50.74
30339;BME280;795;49.296;11.348;2023-05-19T11:55:21;96664.94;;;21.17;47.59
30339;BME280;795;49.296;11.348;2023-05-19T11:58:06;96721.69;;;22.87;44.08
30339;BME280;795;49.296;11.348;2023-05-19T12:00:41;96719.63;;;21.29;45.63
30339;BME280;795;49.296;11.348;2023-05-19T12:03:08;96668.41;;;20.21;47.57
30339;BME280;795;49.296;11.348;2023-05-19T12:05:43;96697.16;;;21.27;46.42
30339;BME280;795;49.296;11.348;2023-05-19T12:08:16;96719.00;;;22.34;44.92
30339;BME280;795;49.296;11.348;2023-05-19T12:10:48;96635.44;;;21.08;45.77
30339;BME280;795;49.296;11.348;2023-05-19T12:13:18;96713.44;;;22.00;45.61
30339;BME280;795;49.296;11.348;2023-05-19T12:15:46;96703.84;;;22.85;44.20
30339;BME280;795;49.296;11.348;2023-05-19T12:18:13;96698.63;;;21.11;46.46
30339;BME280;795;49.296;11.348;2023-05-19T12:20:40;96689.78;;;21.94;44.85
30339;BME280;795;49.296;11.348;2023-05-19T12:23:08;96680.78;;;22.16;43.81
30339;BME280;795;49.296;11.348;2023-05-19T12:25:35;96684.72;;;20.27;47.44
30339;BME280;795;49.296;11.348;2023-05-19T12:28:04;96634.44;;;19.67;47.54
30339;BME280;795;49.296;11.348;2023-05-19T12:30:32;96707.97;;;20.05;49.72
30339;BME280;795;49.296;11.348;2023-05-19T12:33:01;96703.16;;;20.57;47.92
30339;BME280;795;49.296;11.348;2023-05-19T12:35:31;96629.84;;;19.68;47.12
30339;BME280;795;49.296;11.348;2023-05-19T12:38:06;96664.38;;;19.74;48.66
30339;BME280;795;49.296;11.348;2023-05-19T12:40:34;96657.84;;;20.74;48.19
30339;BME280;795;49.296;11.348;2023-05-19T12:43:03;96651.06;;;22.20;45.25
30339;BME280;795;49.296;11.348;2023-05-19T12:45:39;96675.31;;;21.75;45.97
30339;BME280;795;49.296;11.348;2023-05-19T12:48:11;96652.78;;;22.79;43.54
30339;BME280;795;49.296;11.348;2023-05-19T12:50:43;96684.75;;;24.71;40.94
30339;BME280;795;49.296;11.348;2023-05-19T12:53:12;96685.72;;;25.36;39.90
30339;BME280;795;49.296;11.348;2023-05-19T12:55:42;96696.06;;;23.17;41.56
30339;BME280;795;49.296;11.348;2023-05-19T12:58:11;96662.06;;;21.12;44.42
30339;BME280;795;49.296;11.348;2023-05-19T13:00:44;96645.28;;;20.91;44.88
30339;BME280;795;49.296;11.348;2023-05-19T13:03:20;96642.16;;;22.36;43.75
30339;BME280;795;49.296;11.348;2023-05-19T13:05:50;96686.25;;;22.16;44.71
30339;BME280;795;49.296;11.348;2023-05-19T13:08:20;96642.94;;;21.31;45.38
30339;BME280;795;49.296;11.348;2023-05-19T13:10:49;96663.19;;;21.05;46.37
30339;BME280;795;49.296;11.348;2023-05-19T13:13:16;96671.03;;;20.09;48.57
30339;BME280;795;49.296;11.348;2023-05-19T13:15:45;96677.31;;;20.10;49.33
30339;BME280;795;49.296;11.348;2023-05-19T13:18:16;96673.41;;;20.73;47.57
30339;BME280;795;49.296;11.348;2023-05-19T13:20:44;96675.22;;;22.11;44.85
30339;BME280;795;49.296;11.348;2023-05-19T13:23:13;96662.06;;;24.59;40.09
30339;BME280;795;49.296;11.348;2023-05-19T13:25:42;96585.78;;;25.21;37.78
30339;BME280;795;49.296;11.348;2023-05-19T13:28:09;96660.94;;;25.75;37.91
30339;BME280;795;49.296;11.348;2023-05-19T13:30:40;96649.63;;;25.06;38.87
30339;BME280;795;49.296;11.348;2023-05-19T13:33:08;96664.22;;;24.57;38.76
30339;BME280;795;49.296;11.348;2023-05-19T13:35:35;96611.94;;;23.68;39.23
30339;BME280;795;49.296;11.348;2023-05-19T13:38:08;96660.50;;;23.56;39.54
30339;BME280;795;49.296;11.348;2023-05-19T13:40:37;96664.69;;;23.47;40.61
30339;BME280;795;49.296;11.348;2023-05-19T13:43:05;96664.59;;;23.31;41.39
30339;BME280;795;49.296;11.348;2023-05-19T13:45:33;96645.72;;;24.02;40.04
30339;BME280;795;49.296;11.348;2023-05-19T13:48:00;96663.19;;;23.68;41.07